This is the latest recevied weather packets stored in our database for station/object JA0BES-13. If no packets are shown the sender has not sent any weather packets the latest 10 day(s).
| Time | Temp. | Humidity | Pressure | Rain* | Wind** | Luminosity | Snow |
|---|---|---|---|---|---|---|---|
| 1777423778 | 16.67° C | 80% | 1011.6 hPa | 0 mm | - | - | - |
| 1777423178 | 16.67° C | 82% | 1011.7 hPa | 0 mm | - | - | - |
| 1777422578 | 16.11° C | 83% | 1011.7 hPa | 0 mm | - | - | - |
| 1777421977 | 16.11° C | 84% | 1011.7 hPa | 0 mm | - | - | - |
| 1777421377 | 15.56° C | 84% | 1011.6 hPa | 0 mm | - | - | - |
| 1777420776 | 15.56° C | 86% | 1011.6 hPa | 0 mm | - | - | - |
| 1777420176 | 15° C | 87% | 1011.3 hPa | 0 mm | - | - | - |
| 1777419576 | 15° C | 88% | 1011.1 hPa | 0 mm | - | - | - |
| 1777418975 | 14.44° C | 89% | 1011.3 hPa | 0 mm | - | - | - |
| 1777418375 | 14.44° C | 89% | 1011.2 hPa | 0 mm | - | - | - |
| 1777417775 | 14.44° C | 89% | 1011 hPa | 0 mm | - | - | - |
| 1777417174 | 14.44° C | 89% | 1010.9 hPa | 0 mm | - | - | - |
| 1777416574 | 14.44° C | 90% | 1010.6 hPa | 0 mm | - | - | - |
| 1777415973 | 13.89° C | 90% | 1010.8 hPa | 0 mm | - | - | - |
| 1777415373 | 13.89° C | 89% | 1010.7 hPa | 0 mm | - | - | - |
| 1777414773 | 13.89° C | 89% | 1010.8 hPa | 0 mm | - | - | - |
| 1777414173 | 13.89° C | 89% | 1010.8 hPa | 0 mm | - | - | - |
| 1777413572 | 13.89° C | 87% | 1010.4 hPa | 0 mm | - | - | - |
| 1777412972 | 13.89° C | 86% | 1010.5 hPa | 0 mm | - | - | - |
| 1777412371 | 13.89° C | 87% | 1010.4 hPa | 0 mm | - | - | - |
| 1777411771 | 13.89° C | 91% | 1010.3 hPa | 0 mm | - | - | - |
| 1777411171 | 13.89° C | 94% | 1010.2 hPa | 0 mm | - | - | - |
| 1777410571 | 13.89° C | 96% | 1009.9 hPa | 0 mm | - | - | - |
| 1777377548 | 15.56° C | 92% | 1009.4 hPa | 0 mm | - | - | - |
| 1777376347 | 16.11° C | 90% | 1009.2 hPa | 0 mm | - | - | - |
* Rain since midnight (hover to see other rain measurements)
** Current wind speed in m/s (hover to see current wind gust speed)